createdAt,value
2022-08-18T00:01:24.575Z,2.90
2022-08-18T00:03:59.246Z,2.80
2022-08-18T00:06:31.928Z,2.70
2022-08-18T00:09:03.347Z,2.88
2022-08-18T00:14:22.159Z,2.83
2022-08-18T00:16:53.939Z,2.88
2022-08-18T00:22:15.909Z,2.85
2022-08-18T00:24:48.448Z,2.55
2022-08-18T00:27:23.345Z,2.72
2022-08-18T00:29:55.677Z,2.70
2022-08-18T00:32:51.476Z,2.92
2022-08-18T00:35:29.011Z,2.38
2022-08-18T00:38:01.671Z,2.60
2022-08-18T00:40:49.509Z,2.55
2022-08-18T00:43:29.557Z,2.50
2022-08-18T00:45:57.721Z,2.50
2022-08-18T00:48:26.991Z,2.40
2022-08-18T00:51:03.571Z,2.35
2022-08-18T00:53:45.763Z,2.58
2022-08-18T00:56:25.041Z,2.13
2022-08-18T00:58:59.930Z,2.60
2022-08-18T01:01:36.044Z,2.33
2022-08-18T01:04:32.314Z,2.53
2022-08-18T01:07:07.428Z,2.13
2022-08-18T01:09:35.650Z,2.40
2022-08-18T01:12:12.549Z,2.63
2022-08-18T01:14:51.850Z,2.38
2022-08-18T01:17:38.503Z,2.75
2022-08-18T01:20:25.638Z,2.35
2022-08-18T01:23:13.101Z,2.40
2022-08-18T01:26:00.501Z,2.42
2022-08-18T01:28:40.545Z,2.63
2022-08-18T01:31:10.308Z,2.70
2022-08-18T01:33:44.204Z,2.60
2022-08-18T01:36:21.180Z,2.97
2022-08-18T01:38:52.528Z,3.00
2022-08-18T01:44:03.369Z,2.50
2022-08-18T01:46:35.085Z,2.72
2022-08-18T01:49:07.743Z,2.72
2022-08-18T01:51:41.305Z,2.85
2022-08-18T01:54:12.979Z,3.30
2022-08-18T01:56:43.107Z,2.92
2022-08-18T01:59:14.720Z,2.80
2022-08-18T02:04:36.765Z,2.72
2022-08-18T02:07:09.362Z,2.58
2022-08-18T02:09:40.386Z,2.78
2022-08-18T02:12:10.502Z,2.97
2022-08-18T02:14:40.131Z,2.78
2022-08-18T02:17:11.304Z,2.87
2022-08-18T02:19:45.764Z,2.60
2022-08-18T02:22:18.812Z,2.80
2022-08-18T02:24:47.849Z,2.70
2022-08-18T02:27:16.851Z,2.92
2022-08-18T02:29:44.883Z,3.15
2022-08-18T02:32:13.164Z,2.90
2022-08-18T02:34:42.794Z,3.03
2022-08-18T02:37:15.599Z,2.93
2022-08-18T02:39:44.625Z,3.08
2022-08-18T02:42:16.488Z,2.65
2022-08-18T02:44:44.659Z,3.20
2022-08-18T02:47:12.852Z,3.28
2022-08-18T02:49:41.350Z,3.00
2022-08-18T02:52:09.740Z,2.90
2022-08-18T02:54:39.535Z,2.90
2022-08-18T02:57:13.137Z,3.00
2022-08-18T02:59:41.834Z,3.10
2022-08-18T03:02:16.366Z,3.00
2022-08-18T03:04:46.123Z,3.38
2022-08-18T03:07:15.174Z,2.83
2022-08-18T03:09:43.252Z,3.30
2022-08-18T03:12:11.354Z,3.40
2022-08-18T03:14:40.260Z,2.92
2022-08-18T03:17:09.789Z,3.58
2022-08-18T03:19:38.395Z,3.22
2022-08-18T03:22:28.692Z,3.10
2022-08-18T03:24:59.519Z,3.40
2022-08-18T03:27:28.942Z,3.45
2022-08-18T03:29:58.782Z,3.30
2022-08-18T03:32:26.684Z,3.00
2022-08-18T03:34:55.183Z,3.20
2022-08-18T03:37:23.472Z,3.10
2022-08-18T03:39:53.012Z,3.30
2022-08-18T03:42:21.567Z,3.40
2022-08-18T03:44:49.800Z,3.20
2022-08-18T03:47:19.338Z,3.25
2022-08-18T03:49:49.182Z,3.20
2022-08-18T03:52:21.658Z,3.58
2022-08-18T03:54:50.692Z,3.53
2022-08-18T03:57:18.899Z,3.30
2022-08-18T03:59:46.828Z,3.58
2022-08-18T04:02:18.832Z,3.50
2022-08-18T04:04:56.301Z,3.55
2022-08-18T04:07:25.032Z,3.63
2022-08-18T04:09:53.013Z,3.60
2022-08-18T04:12:21.090Z,3.38
2022-08-18T04:14:50.274Z,3.53
2022-08-18T04:17:24.589Z,3.90
2022-08-18T04:19:54.726Z,3.97
2022-08-18T04:22:25.168Z,3.45
2022-08-18T04:24:55.912Z,3.72
2022-08-18T04:27:27.387Z,3.65
2022-08-18T04:29:56.920Z,3.90
2022-08-18T04:32:29.932Z,3.70
2022-08-18T04:34:58.592Z,3.80
2022-08-18T04:37:32.574Z,3.88
2022-08-18T04:40:01.808Z,4.10
2022-08-18T04:42:29.703Z,3.63
2022-08-18T04:44:58.901Z,4.07
2022-08-18T04:47:27.496Z,4.00
2022-08-18T04:49:56.647Z,3.67
2022-08-18T04:52:56.854Z,3.78
2022-08-18T04:55:25.885Z,3.50
2022-08-18T04:57:54.207Z,4.22
2022-08-18T05:00:22.407Z,3.55
2022-08-18T05:02:50.437Z,3.50
2022-08-18T05:05:18.452Z,3.60
2022-08-18T05:07:47.989Z,3.25
2022-08-18T05:10:17.737Z,3.50
2022-08-18T05:12:48.907Z,3.80
2022-08-18T05:15:19.162Z,3.13
2022-08-18T05:17:50.649Z,3.35
2022-08-18T05:20:21.282Z,3.35
2022-08-18T05:22:49.704Z,3.60
2022-08-18T05:25:18.838Z,3.38
2022-08-18T05:27:47.096Z,3.50
2022-08-18T05:30:16.677Z,3.50
2022-08-18T05:32:49.899Z,3.50
2022-08-18T05:35:30.772Z,3.30
2022-08-18T05:38:19.702Z,3.43
2022-08-18T05:41:23.064Z,3.35
2022-08-18T05:43:53.057Z,3.42
2022-08-18T05:46:54.713Z,3.60
2022-08-18T05:52:04.775Z,3.40
2022-08-18T05:55:05.569Z,3.40
2022-08-18T05:57:51.640Z,3.40
2022-08-18T06:00:25.022Z,3.50
2022-08-18T06:03:15.354Z,3.40
2022-08-18T06:06:01.665Z,3.70
2022-08-18T06:09:11.030Z,3.53
2022-08-18T06:11:39.099Z,3.53
2022-08-18T06:14:08.796Z,3.15
2022-08-18T06:16:44.499Z,3.67
2022-08-18T06:19:53.663Z,3.70
2022-08-18T06:22:52.081Z,3.58
2022-08-18T06:25:41.488Z,3.42
2022-08-18T06:28:16.032Z,3.30
2022-08-18T06:31:14.363Z,3.33
2022-08-18T06:34:29.301Z,3.42
2022-08-18T06:37:12.178Z,3.55
2022-08-18T06:39:51.607Z,3.40
2022-08-18T06:42:26.328Z,3.67
2022-08-18T06:45:18.311Z,3.80
2022-08-18T06:48:00.120Z,3.65
2022-08-18T06:50:46.408Z,4.00
2022-08-18T06:53:27.501Z,3.88
2022-08-18T06:55:58.323Z,3.42
2022-08-18T06:58:31.383Z,3.70
2022-08-18T07:01:08.370Z,3.78
2022-08-18T07:03:39.057Z,3.80
2022-08-18T07:06:08.754Z,3.80
2022-08-18T07:08:41.590Z,3.67
2022-08-18T07:11:30.292Z,3.75
2022-08-18T07:14:24.624Z,3.70
2022-08-18T07:17:12.264Z,3.65
2022-08-18T07:19:41.410Z,3.63
2022-08-18T07:22:18.336Z,3.97
2022-08-18T07:24:54.535Z,4.03
2022-08-18T07:27:49.273Z,3.55
2022-08-18T07:30:19.463Z,3.50
2022-08-18T07:33:19.264Z,3.97
2022-08-18T07:36:10.055Z,3.70
2022-08-18T07:39:12.010Z,3.50
2022-08-18T07:41:48.632Z,3.75
2022-08-18T07:44:22.276Z,3.70
2022-08-18T07:46:58.830Z,3.90
2022-08-18T07:49:35.320Z,4.40
2022-08-18T07:52:36.438Z,4.10
2022-08-18T07:55:33.352Z,3.83
2022-08-18T07:58:23.107Z,4.22
2022-08-18T08:01:33.932Z,4.13
2022-08-18T08:04:38.027Z,3.83
2022-08-18T08:07:25.319Z,4.28
2022-08-18T08:10:15.192Z,4.05
2022-08-18T08:13:09.618Z,4.30
2022-08-18T08:16:42.066Z,4.25
2022-08-18T08:20:02.754Z,3.80
2022-08-18T08:22:39.822Z,3.92
2022-08-18T08:25:45.054Z,3.67
2022-08-18T08:28:35.484Z,4.10
2022-08-18T08:31:38.189Z,4.07
2022-08-18T08:34:25.798Z,4.28
2022-08-18T08:37:05.721Z,3.92
2022-08-18T08:40:08.327Z,4.22
2022-08-18T08:42:54.825Z,4.00
2022-08-18T08:45:33.108Z,3.70
2022-08-18T08:48:09.369Z,3.85
2022-08-18T08:50:55.262Z,4.10
2022-08-18T08:53:43.951Z,4.15
2022-08-18T08:56:16.301Z,4.00
2022-08-18T08:58:52.810Z,4.28
2022-08-18T09:01:45.022Z,3.97
2022-08-18T09:04:39.560Z,4.07
2022-08-18T09:07:39.012Z,3.67
2022-08-18T09:10:54.316Z,4.20
2022-08-18T09:13:39.075Z,4.20
2022-08-18T09:16:34.848Z,4.20
2022-08-18T09:19:21.370Z,4.18
2022-08-18T09:22:03.540Z,4.65
2022-08-18T09:25:02.131Z,4.60
2022-08-18T09:28:09.485Z,4.38
2022-08-18T09:31:08.663Z,4.50
2022-08-18T09:33:45.874Z,4.95
2022-08-18T09:37:00.461Z,6.00
2022-08-18T09:40:12.544Z,5.13
2022-08-18T09:42:56.003Z,27.58
2022-08-18T09:45:40.780Z,9.80
2022-08-18T09:48:32.314Z,6.65
2022-08-18T09:51:17.547Z,6.43
2022-08-18T09:53:54.371Z,15.15
2022-08-18T09:56:54.338Z,7.80
2022-08-18T09:59:47.701Z,7.43
2022-08-18T10:02:29.745Z,7.05
2022-08-18T10:05:19.309Z,7.03
2022-08-18T10:08:21.344Z,6.82
2022-08-18T10:11:40.056Z,7.35
2022-08-18T10:15:08.824Z,7.82
2022-08-18T10:18:17.777Z,7.20
2022-08-18T10:21:09.422Z,8.10
2022-08-18T10:26:54.633Z,8.02
2022-08-18T10:29:29.167Z,33.47
2022-08-18T10:31:57.591Z,15.25
2022-08-18T10:34:51.880Z,9.90
2022-08-18T10:37:38.597Z,8.60
2022-08-18T10:40:10.064Z,13.75
2022-08-18T10:46:25.018Z,10.70
2022-08-18T10:52:10.939Z,18.65
2022-08-18T10:54:56.462Z,10.55
2022-08-18T10:58:08.560Z,14.60
2022-08-18T11:01:11.876Z,8.73
2022-08-18T11:03:51.697Z,7.75
2022-08-18T11:06:27.382Z,8.50
2022-08-18T11:09:01.445Z,12.40
2022-08-18T11:11:52.896Z,12.00
2022-08-18T11:15:22.149Z,9.40
2022-08-18T11:18:42.671Z,9.80
2022-08-18T11:21:41.860Z,8.23
2022-08-18T11:24:32.013Z,9.50
2022-08-18T11:27:17.475Z,7.25
2022-08-18T11:29:47.203Z,7.78
2022-08-18T11:32:34.931Z,9.38
2022-08-18T11:35:22.234Z,7.90
2022-08-18T11:38:03.886Z,8.55
2022-08-18T11:41:48.301Z,9.32
2022-08-18T11:44:25.210Z,13.13
2022-08-18T11:47:07.571Z,13.25
2022-08-18T11:49:37.716Z,10.80
2022-08-18T11:55:28.767Z,9.20
2022-08-18T11:58:00.356Z,11.00
2022-08-18T12:00:48.168Z,8.85
2022-08-18T12:03:37.658Z,14.38
2022-08-18T12:06:33.724Z,10.27
2022-08-18T12:10:07.794Z,12.63
2022-08-18T12:12:30.988Z,23.40
2022-08-18T12:15:24.247Z,12.60
2022-08-18T12:17:54.189Z,8.95
2022-08-18T12:20:27.108Z,7.38
2022-08-18T12:22:59.050Z,7.47
2022-08-18T12:25:26.957Z,11.95
2022-08-18T12:27:55.944Z,8.10
2022-08-18T12:30:24.799Z,15.73
2022-08-18T12:32:56.206Z,23.60
2022-08-18T12:35:34.726Z,10.27
2022-08-18T12:38:13.166Z,8.88
2022-08-18T12:40:43.438Z,6.95
2022-08-18T12:43:12.439Z,8.13
2022-08-18T12:45:44.289Z,7.10
2022-08-18T12:48:13.301Z,7.63
2022-08-18T12:50:54.028Z,6.55
2022-08-18T12:53:30.507Z,6.43
2022-08-18T12:56:30.593Z,13.70
2022-08-18T12:59:06.776Z,6.65
2022-08-18T13:01:37.208Z,5.97
2022-08-18T13:07:01.957Z,8.90
2022-08-18T13:09:53.079Z,10.07
2022-08-18T13:12:23.904Z,7.55
2022-08-18T13:14:55.122Z,6.50
2022-08-18T13:17:32.421Z,5.20
2022-08-18T13:20:15.113Z,10.45
2022-08-18T13:22:44.221Z,8.90
2022-08-18T13:25:28.814Z,6.35
2022-08-18T13:28:01.815Z,7.65
2022-08-18T13:30:32.752Z,5.88
2022-08-18T13:33:05.218Z,5.35
2022-08-18T13:35:44.318Z,5.57
2022-08-18T13:38:21.754Z,5.50
2022-08-18T13:40:55.485Z,6.20
2022-08-18T13:43:35.617Z,6.45
2022-08-18T13:46:09.243Z,6.00
2022-08-18T13:48:39.203Z,6.38
2022-08-18T13:51:16.857Z,8.07
2022-08-18T13:53:52.202Z,7.72
2022-08-18T13:56:31.316Z,8.25
2022-08-18T13:59:00.447Z,7.03
2022-08-18T14:01:51.912Z,8.27
2022-08-18T14:04:22.349Z,6.32
2022-08-18T14:06:57.023Z,6.75
2022-08-18T14:09:36.689Z,6.35
2022-08-18T14:12:23.008Z,5.63
2022-08-18T14:14:55.065Z,5.90
2022-08-18T14:17:26.728Z,9.23
2022-08-18T14:20:15.132Z,7.63
2022-08-18T14:23:22.041Z,8.40
2022-08-18T14:26:12.005Z,9.82
2022-08-18T14:28:41.316Z,9.75
2022-08-18T14:31:11.896Z,7.82
2022-08-18T14:33:50.576Z,7.25
2022-08-18T14:36:28.928Z,9.98
2022-08-18T14:39:01.636Z,8.10
2022-08-18T14:41:31.781Z,6.90
2022-08-18T14:44:13.287Z,7.13
2022-08-18T14:46:54.238Z,7.07
2022-08-18T14:49:28.423Z,10.32
2022-08-18T14:52:02.228Z,7.80
2022-08-18T14:54:32.162Z,6.93
2022-08-18T14:57:03.049Z,6.55
2022-08-18T14:59:34.637Z,7.03
2022-08-18T15:02:11.236Z,6.72
2022-08-18T15:04:55.876Z,6.10
2022-08-18T15:07:26.980Z,6.78
2022-08-18T15:10:15.646Z,6.63
2022-08-18T15:12:44.774Z,7.10
2022-08-18T15:15:18.022Z,7.10
2022-08-18T15:17:50.251Z,7.20
2022-08-18T15:20:29.436Z,6.60
2022-08-18T15:23:28.070Z,7.22
2022-08-18T15:25:58.882Z,7.20
2022-08-18T15:28:28.237Z,8.65
2022-08-18T15:33:50.210Z,7.05
2022-08-18T15:36:24.107Z,7.75
2022-08-18T15:39:01.673Z,6.85
2022-08-18T15:41:44.200Z,7.40
2022-08-18T15:44:19.903Z,8.80
2022-08-18T15:46:53.400Z,7.85
2022-08-18T15:49:24.254Z,8.40
2022-08-18T15:51:52.550Z,8.90
2022-08-18T15:54:21.099Z,7.60
2022-08-18T15:56:58.077Z,6.78
2022-08-18T15:59:34.219Z,6.53
2022-08-18T16:02:11.797Z,7.30
2022-08-18T16:04:43.082Z,8.30
2022-08-18T16:07:17.904Z,8.02
2022-08-18T16:09:53.105Z,7.35
2022-08-18T16:12:21.682Z,6.57
2022-08-18T16:14:53.238Z,7.25
2022-08-18T16:17:29.823Z,7.32
2022-08-18T16:20:02.410Z,7.22
2022-08-18T16:22:31.842Z,6.78
2022-08-18T16:25:02.746Z,6.47
2022-08-18T16:27:33.549Z,6.13
2022-08-18T16:30:04.771Z,5.28
2022-08-18T16:32:32.752Z,4.75
2022-08-18T16:35:01.616Z,4.82
2022-08-18T16:37:30.860Z,4.93
2022-08-18T16:39:59.811Z,4.80
2022-08-18T16:42:33.438Z,4.70
2022-08-18T16:45:04.141Z,4.40
2022-08-18T16:47:39.972Z,4.50
2022-08-18T16:50:17.816Z,4.43
2022-08-18T16:52:47.372Z,4.75
2022-08-18T16:55:15.763Z,5.40
2022-08-18T16:58:03.542Z,4.78
2022-08-18T17:00:55.298Z,4.90
2022-08-18T17:03:43.114Z,5.18
2022-08-18T17:06:15.263Z,4.95
2022-08-18T17:08:45.770Z,5.28
2022-08-18T17:11:27.730Z,5.57
2022-08-18T17:16:29.280Z,5.53
2022-08-18T17:18:59.046Z,5.82
2022-08-18T17:24:05.495Z,6.30
2022-08-18T17:26:46.569Z,6.07
2022-08-18T17:29:43.860Z,6.38
2022-08-18T17:32:27.829Z,6.25
2022-08-18T17:35:08.075Z,5.93
2022-08-18T17:37:37.570Z,6.45
2022-08-18T17:40:28.625Z,6.88
2022-08-18T17:42:59.864Z,6.28
2022-08-18T17:45:35.069Z,6.82
2022-08-18T17:48:18.180Z,6.45
2022-08-18T17:51:09.642Z,6.70
2022-08-18T17:53:37.820Z,6.60
2022-08-18T17:56:37.856Z,6.53
2022-08-18T17:59:45.838Z,7.03
2022-08-18T18:02:29.988Z,6.50
2022-08-18T18:05:03.635Z,6.88
2022-08-18T18:07:58.502Z,6.90
2022-08-18T18:11:05.484Z,7.70
2022-08-18T18:13:34.064Z,6.95
2022-08-18T18:16:35.082Z,6.90
2022-08-18T18:19:07.561Z,6.57
2022-08-18T18:21:55.315Z,7.07
2022-08-18T18:24:33.009Z,6.88
2022-08-18T18:27:03.325Z,6.45
2022-08-18T18:29:37.785Z,6.63
2022-08-18T18:32:24.673Z,7.22
2022-08-18T18:35:34.048Z,6.72
2022-08-18T18:38:23.145Z,6.73
2022-08-18T18:41:14.829Z,6.97
2022-08-18T18:43:47.112Z,7.35
2022-08-18T18:47:01.704Z,7.43
2022-08-18T18:49:50.653Z,6.97
2022-08-18T18:52:37.456Z,6.95
2022-08-18T18:55:24.384Z,6.82
2022-08-18T18:58:21.537Z,7.18
2022-08-18T19:00:59.611Z,6.72
2022-08-18T19:03:39.605Z,6.90
2022-08-18T19:06:45.256Z,6.63
2022-08-18T19:09:18.493Z,7.07
2022-08-18T19:12:05.419Z,6.65
2022-08-18T19:14:59.838Z,6.90
2022-08-18T19:17:31.167Z,6.25
2022-08-18T19:20:21.671Z,6.45
2022-08-18T19:23:00.585Z,7.20
2022-08-18T19:25:42.606Z,7.05
2022-08-18T19:29:13.784Z,7.53
2022-08-18T19:31:46.217Z,7.10
2022-08-18T19:34:37.816Z,6.78
2022-08-18T19:37:31.292Z,6.80
2022-08-18T19:40:35.080Z,7.40
2022-08-18T19:43:12.606Z,7.07
2022-08-18T19:46:03.071Z,7.35
2022-08-18T19:49:04.394Z,7.22
2022-08-18T19:51:40.377Z,7.28
2022-08-18T19:54:17.526Z,7.72
2022-08-18T19:57:10.007Z,7.90
2022-08-18T20:00:15.887Z,7.90
2022-08-18T20:02:46.484Z,8.65
2022-08-18T20:06:33.676Z,8.80
2022-08-18T20:09:10.023Z,8.75
2022-08-18T20:12:09.250Z,8.70
2022-08-18T20:14:42.446Z,8.15
2022-08-18T20:17:13.218Z,8.27
2022-08-18T20:20:04.510Z,8.75
2022-08-18T20:22:42.781Z,8.48
2022-08-18T20:25:20.454Z,9.00
2022-08-18T20:27:53.166Z,8.93
2022-08-18T20:30:29.031Z,8.95
2022-08-18T20:33:18.054Z,8.20
2022-08-18T20:36:29.429Z,8.90
2022-08-18T20:39:00.497Z,9.05
2022-08-18T20:41:43.893Z,8.43
2022-08-18T20:44:29.455Z,8.48
2022-08-18T20:47:32.542Z,8.35
2022-08-18T20:50:22.133Z,7.93
2022-08-18T20:53:16.552Z,8.55
2022-08-18T20:56:43.224Z,9.05
2022-08-18T20:59:20.061Z,8.43
2022-08-18T21:02:07.679Z,8.50
2022-08-18T21:04:47.856Z,8.32
2022-08-18T21:07:36.266Z,8.60
2022-08-18T21:10:28.456Z,8.48
2022-08-18T21:13:03.528Z,8.50
2022-08-18T21:15:39.629Z,8.77
2022-08-18T21:18:24.654Z,8.50
2022-08-18T21:20:58.556Z,8.65
2022-08-18T21:23:34.884Z,8.77
2022-08-18T21:26:14.657Z,9.07
2022-08-18T21:28:46.817Z,9.07
2022-08-18T21:31:44.394Z,10.00
2022-08-18T21:34:44.877Z,8.60
2022-08-18T21:37:18.250Z,9.27
2022-08-18T21:39:59.736Z,9.05
2022-08-18T21:42:41.974Z,9.65
2022-08-18T21:45:22.538Z,9.10
2022-08-18T21:47:56.568Z,9.63
2022-08-18T21:50:29.409Z,9.70
2022-08-18T21:53:05.539Z,9.95
2022-08-18T21:55:41.926Z,10.35
2022-08-18T21:58:16.792Z,9.55
2022-08-18T22:01:11.013Z,10.07
2022-08-18T22:04:32.069Z,9.60
2022-08-18T22:07:34.546Z,9.75
2022-08-18T22:10:44.861Z,9.93
2022-08-18T22:13:46.838Z,9.70
2022-08-18T22:16:38.053Z,9.52
2022-08-18T22:19:20.689Z,9.75
2022-08-18T22:22:31.521Z,10.18
2022-08-18T22:25:00.370Z,9.95
2022-08-18T22:27:29.813Z,10.43
2022-08-18T22:30:04.694Z,10.35
2022-08-18T22:32:39.856Z,10.45
2022-08-18T22:35:10.218Z,10.85
2022-08-18T22:37:50.167Z,10.07
2022-08-18T22:40:21.492Z,11.07
2022-08-18T22:42:50.226Z,9.85
2022-08-18T22:45:20.464Z,10.98
2022-08-18T22:47:48.815Z,10.30
2022-08-18T22:50:16.950Z,10.80
2022-08-18T22:52:49.532Z,11.05
2022-08-18T22:55:22.070Z,10.98
2022-08-18T22:57:55.888Z,11.35
2022-08-18T23:00:27.511Z,10.57
2022-08-18T23:02:56.003Z,11.07
2022-08-18T23:05:25.623Z,10.20
2022-08-18T23:07:55.961Z,11.23
2022-08-18T23:10:24.658Z,10.85
2022-08-18T23:12:54.107Z,10.90
2022-08-18T23:15:39.256Z,11.02
2022-08-18T23:18:07.797Z,10.68
2022-08-18T23:20:37.425Z,11.13
2022-08-18T23:23:09.193Z,11.13
2022-08-18T23:25:37.338Z,10.98
2022-08-18T23:28:10.730Z,11.35
2022-08-18T23:30:40.742Z,11.02
2022-08-18T23:33:10.431Z,11.00
2022-08-18T23:35:39.883Z,11.45
2022-08-18T23:38:08.986Z,11.18
2022-08-18T23:40:42.323Z,11.27
2022-08-18T23:43:10.390Z,11.75
2022-08-18T23:45:50.002Z,11.82
2022-08-18T23:48:23.988Z,12.10
2022-08-18T23:50:53.332Z,10.85
2022-08-18T23:53:22.295Z,10.75
2022-08-18T23:55:50.334Z,11.10
2022-08-18T23:58:19.166Z,11.65
